Mabalauta Airport


Codes: FVBL/
Name: Mabalauta Airport
City: Mabalauta
Country: Zimbabwe
Elevation: 950 ft.

Photos at Mabalauta Airport


   Photos courtesy of SpottingLog. You can add your own sightings and photos by signing up for a free trial today.



No photos found.

Weather at Mabalauta Airport


Time (UTC)DescriptionTempratureWindCloud coverageVisibilityPressureHumidity
13-Jun-2024 03:00Clear Sky12°C4 mph, NW0%10000m1024hPa68%
13-Jun-2024 06:00Clear Sky14°C4 mph, NW0%10000m1025hPa62%
13-Jun-2024 09:00Clear Sky22°C2 mph, SW0%10000m1025hPa40%
13-Jun-2024 12:00Clear Sky28°C7 mph, S0%10000m1021hPa19%
13-Jun-2024 15:00Clear Sky23°C7 mph, S0%10000m1022hPa24%
13-Jun-2024 18:00Clear Sky17°C4 mph, E0%10000m1024hPa41%
13-Jun-2024 21:00Clear Sky15°C4 mph, SE0%10000m1025hPa54%
14-Jun-2024 00:00Clear Sky13°C4 mph, SE0%10000m1025hPa70%
14-Jun-2024 03:00Clear Sky11°C2 mph, SE0%10000m1026hPa87%
14-Jun-2024 06:00Clear Sky15°C2 mph, SE0%10000m1028hPa76%
14-Jun-2024 09:00Clear Sky22°C7 mph, S7%10000m1027hPa49%
14-Jun-2024 12:00Clear Sky25°C9 mph, SE4%10000m1022hPa37%
14-Jun-2024 15:00Clear Sky22°C7 mph, SE0%10000m1022hPa45%
14-Jun-2024 18:00Clear Sky16°C4 mph, E0%10000m1024hPa67%
14-Jun-2024 21:00Clear Sky15°C2 mph, E0%10000m1024hPa71%
15-Jun-2024 00:00Clear Sky14°C2 mph, SE0%10000m1023hPa77%
15-Jun-2024 03:00Clear Sky12°C2 mph, SE0%10000m1024hPa86%
15-Jun-2024 06:00Clear Sky16°C0 mph, E0%10000m1025hPa64%
15-Jun-2024 09:00Clear Sky25°C2 mph, SE0%10000m1023hPa34%
15-Jun-2024 12:00Clear Sky27°C4 mph, S0%10000m1020hPa25%
15-Jun-2024 15:00Clear Sky23°C4 mph, SE0%10000m1020hPa31%
15-Jun-2024 18:00Clear Sky17°C4 mph, E0%10000m1022hPa47%
15-Jun-2024 21:00Clear Sky15°C4 mph, E0%10000m1023hPa54%
16-Jun-2024 00:00Clear Sky14°C2 mph, SE0%10000m1022hPa60%
16-Jun-2024 03:00Clear Sky12°C2 mph, E0%10000m1023hPa71%
16-Jun-2024 06:00Clear Sky16°C2 mph, SE0%10000m1025hPa61%
16-Jun-2024 09:00Clear Sky24°C4 mph, SE0%10000m1023hPa40%
16-Jun-2024 12:00Clear Sky27°C4 mph, SE0%10000m1019hPa28%
16-Jun-2024 15:00Clear Sky23°C7 mph, SE0%10000m1019hPa34%
16-Jun-2024 18:00Clear Sky17°C4 mph, E0%10000m1021hPa51%
16-Jun-2024 21:00Clear Sky15°C2 mph, E1%10000m1022hPa61%
17-Jun-2024 00:00Clear Sky14°C4 mph, E1%10000m1021hPa67%
17-Jun-2024 03:00Clear Sky12°C4 mph, NE3%10000m1022hPa78%
17-Jun-2024 06:00Clear Sky17°C2 mph, NE2%10000m1024hPa69%
17-Jun-2024 09:00Clear Sky26°C2 mph, E0%10000m1022hPa37%
17-Jun-2024 12:00Clear Sky28°C2 mph, SE1%10000m1018hPa27%
17-Jun-2024 15:00Clear Sky24°C4 mph, SE2%10000m1018hPa34%
17-Jun-2024 18:00Clear Sky18°C4 mph, NE2%10000m1020hPa51%
17-Jun-2024 21:00Clear Sky16°C4 mph, NE4%10000m1020hPa58%
18-Jun-2024 00:00Clear Sky14°C2 mph, NE2%10000m1020hPa71%